Terminal Aerodrome Forecast
Issued by NWS Oklahoma City, OK

Home | Current Version | Previous Version | Text Only | Print | Product List | Glossary On
Versions: 1 2 3 4 5 6 7 8 9 10 11 12
000
FTUS44 KOUN 312320
TAFOUN
TAF
KOUN 312320Z 0100/0124 05013G17KT P6SM VCTS FEW020 SCT040CB BKN090
      TEMPO 0100/0104 P6SM TSRA FEW020 BKN040CB
     FM010400 03006KT P6SM VCTS FEW020 BKN030CB
     FM011800 03008KT P6SM OVC040=

USA.gov is the U.S. government's official web portal to all federal, state and local government web resources and services.